Arvada, CO

3:13 PM MDT on October 23, 2019 (GMT -0600)
Olde Town | | Change Station
Active Advisory: Winter Weather Advisory

Elev 5367 ft 39.80 °N, 105.09 °W | Updated 8 seconds ago

Overcast
Overcast
45.8 °F
Feels Like 46 °F
N
0
Wind Variable Wind from SW
Gusts 0.0 mph

Today
High -- | Low -- °F
--% Chance of Precip.
Yesterday
High -- | Low -- °F
Precip. -- in
Pressure 30.09 in
Visibility 20.0 miles
Clouds Scattered Clouds 2900 ft
Mostly Cloudy 7000 ft
Overcast 9000 ft
Windchill 46 °F
Dew Point 28 °F
Humidity 51%
Rainfall 0.00 in
Snow Depth Not available.
7:18 AM 6:09 PM
Waning Crescent, 24% visible
METAR KBJC 232047Z 03016G22KT 20SM VCSH SCT029 BKN070 OVC090 07/M01 A3009
Pressure 30.09 in
Visibility 20.0 miles
Clouds Scattered Clouds 2900 ft
Mostly Cloudy 7000 ft
Overcast 9000 ft
Windchill 46 °F
Dew Point 28 °F
Humidity 51%
Rainfall 0.00 in
Snow Depth Not available.
7:18 AM 6:09 PM
Waning Crescent, 24% visible
METAR KBJC 232047Z 03016G22KT 20SM VCSH SCT029 BKN070 OVC090 07/M01 A3009

Get Your Daily Forecast Email!

Thanks for signing up!

Be on the lookout for a verification email in your inbox.

You'll start receiving severe weather alerts in your inbox..

×

10-Day Weather Forecast

Almanac

Astronomy

Oct. 23, 2019 Rise Set
Actual Time
Civil Twilight
Nautical Twilight
Astronomical Twilight
Moon
Length of Visible Light
Length of Day
Tomorrow will be .
, % of the Moon is Illuminated

Today's Extremes

State Highs State Lows

Community

WunderPhotos

Category 6

Welcome to Category 6. This is the collective home for Weather Underground's featured writeups by Dr. Jeff Masters (right), Bob Henson (left), Chris Burt, and other regular contributors.

Nearby

Air Quality

  Air Quality AQ Index Pollutant
Not available.

Snow Depth

Station Depth Elevation

Earthquake Activity

City Distance Mag. Time & Date
Minimum magnitude displayed is 2.5.

Coastal Water Temperatures

Place Temperature

Stations

Nearby Weather Stations

Station Location Temp. Windchill Dew Point Humidity Wind Precip. Elev Updated Type
                   

Watches & Warnings

Winter Weather Advisory
Issued: 12:11 PM MDT Oct. 23, 2019 – National Weather Service

... Winter Weather Advisory remains in effect from 6 PM this
evening to 8 am MDT Thursday...

* what... snow expected. Total snow accumulations of 2 to 4
inches.

* Where... Boulder and the western suburbs of Denver and Denver.

* When... from 6 PM this evening to 8 am MDT Thursday.

* Impacts... plan on slippery Road conditions. The hazardous
conditions could impact the Thursday morning commute.

Precautionary/preparedness actions...

Slow down and use caution while traveling.

The latest Road conditions for the state you are calling from can
be obtained by calling 5 1 1.